RYR6827 EPGD-LZIB
Flight info
| Callsign | RYR6827 |
|---|---|
| Flight time | 1h 0m |
| Altitude | 32000 |
| Route | IRLUN N133 GRUDA DCT UPKIS T720 REGLI DCT MAVOR P10 BERVA |
| Aircraft | B738/M-SDE2E3FGHIRWXY/LB1 |
Departure
| Time | 2026-05-03 22:40 |
|---|---|
| Airport | Gdańsk Lech Wałęsa Airport (EPGD) |
Arrival
| Time | 2026-05-03 23:40 |
|---|---|
| Airport | M. R. Štefánik Airport (LZIB) |
| Time | Latitude | Longitude | Altitude | Speed | Heading |
|---|---|---|---|---|---|
| 2026-05-03 22:29 | 54.38170 | 18.46429 | 497 ft | 0 kts | 23° |
| 2026-05-03 22:31 | 54.38159 | 18.46421 | 497 ft | 2 kts | 23° |
| 2026-05-03 22:31 | 54.38141 | 18.46408 | 497 ft | 3 kts | 23° |
| 2026-05-03 22:31 | 54.38123 | 18.46395 | 497 ft | 3 kts | 23° |
| 2026-05-03 22:32 | 54.38118 | 18.46391 | 497 ft | 0 kts | 23° |
| 2026-05-03 22:34 | 54.38123 | 18.46401 | 497 ft | 3 kts | 64° |
| 2026-05-03 22:34 | 54.38109 | 18.46462 | 497 ft | 7 kts | 114° |
| 2026-05-03 22:34 | 54.38087 | 18.46548 | 497 ft | 10 kts | 112° |
| 2026-05-03 22:34 | 54.38023 | 18.46581 | 497 ft | 12 kts | 200° |
| 2026-05-03 22:35 | 54.37945 | 18.46600 | 497 ft | 13 kts | 119° |
| 2026-05-03 22:35 | 54.37904 | 18.46762 | 497 ft | 15 kts | 113° |
| 2026-05-03 22:35 | 54.37863 | 18.46928 | 497 ft | 16 kts | 113° |
| 2026-05-03 22:35 | 54.37814 | 18.47124 | 497 ft | 19 kts | 113° |
| 2026-05-03 22:36 | 54.37761 | 18.47335 | 497 ft | 20 kts | 113° |
| 2026-05-03 22:36 | 54.37709 | 18.47544 | 497 ft | 17 kts | 112° |
| 2026-05-03 22:36 | 54.37668 | 18.47714 | 497 ft | 15 kts | 112° |
| 2026-05-03 22:36 | 54.37622 | 18.47899 | 497 ft | 19 kts | 114° |
| 2026-05-03 22:37 | 54.37566 | 18.48126 | 497 ft | 22 kts | 113° |
| 2026-05-03 22:37 | 54.37510 | 18.48351 | 497 ft | 19 kts | 113° |
| 2026-05-03 22:37 | 54.37460 | 18.48554 | 497 ft | 19 kts | 113° |
| 2026-05-03 22:37 | 54.37406 | 18.48768 | 497 ft | 19 kts | 113° |
| 2026-05-03 22:38 | 54.37359 | 18.48961 | 497 ft | 18 kts | 112° |
| 2026-05-03 22:38 | 54.37309 | 18.49164 | 497 ft | 19 kts | 113° |
| 2026-05-03 22:38 | 54.37229 | 18.49248 | 497 ft | 12 kts | 193° |
| 2026-05-03 22:38 | 54.37169 | 18.49169 | 497 ft | 10 kts | 229° |
| 2026-05-03 22:39 | 54.37152 | 18.49081 | 497 ft | 7 kts | 292° |
| 2026-05-03 22:39 | 54.37194 | 18.48906 | 497 ft | 36 kts | 292° |
| 2026-05-03 22:39 | 54.37374 | 18.48180 | 497 ft | 95 kts | 293° |
| 2026-05-03 22:39 | 54.37703 | 18.46857 | 497 ft | 145 kts | 292° |
| 2026-05-03 22:40 | 54.38138 | 18.45094 | 775 ft | 164 kts | 292° |
| 2026-05-03 22:40 | 54.38572 | 18.43285 | 1435 ft | 167 kts | 291° |
| 2026-05-03 22:40 | 54.39014 | 18.41414 | 2004 ft | 174 kts | 291° |
| 2026-05-03 22:40 | 54.39502 | 18.39459 | 2544 ft | 187 kts | 291° |
| 2026-05-03 22:41 | 54.40045 | 18.37289 | 2902 ft | 209 kts | 289° |
| 2026-05-03 22:41 | 54.40537 | 18.34806 | 3176 ft | 229 kts | 272° |
| 2026-05-03 22:41 | 54.40321 | 18.32075 | 3662 ft | 238 kts | 245° |
| 2026-05-03 22:41 | 54.39322 | 18.29792 | 4289 ft | 246 kts | 218° |
| 2026-05-03 22:42 | 54.37754 | 18.28552 | 5030 ft | 255 kts | 193° |
| 2026-05-03 22:42 | 54.35971 | 18.28472 | 5761 ft | 266 kts | 176° |
| 2026-05-03 22:42 | 54.34107 | 18.29130 | 6508 ft | 273 kts | 172° |
| 2026-05-03 22:42 | 54.32255 | 18.29749 | 7270 ft | 277 kts | 173° |
| 2026-05-03 22:43 | 54.30353 | 18.30386 | 8029 ft | 280 kts | 173° |
| 2026-05-03 22:43 | 54.28425 | 18.31034 | 8767 ft | 285 kts | 172° |
| 2026-05-03 22:43 | 54.26469 | 18.31693 | 9501 ft | 288 kts | 172° |
| 2026-05-03 22:43 | 54.24490 | 18.32362 | 10244 ft | 291 kts | 173° |
| 2026-05-03 22:44 | 54.22475 | 18.33042 | 10872 ft | 299 kts | 173° |
| 2026-05-03 22:44 | 54.20385 | 18.33747 | 11286 ft | 315 kts | 173° |
| 2026-05-03 22:44 | 54.18169 | 18.34494 | 11570 ft | 334 kts | 173° |
| 2026-05-03 22:44 | 54.15825 | 18.35284 | 11825 ft | 353 kts | 173° |
| 2026-05-03 22:45 | 54.13395 | 18.36152 | 12062 ft | 372 kts | 170° |
| 2026-05-03 22:45 | 54.10867 | 18.37478 | 12409 ft | 387 kts | 164° |
| 2026-05-03 22:45 | 54.08336 | 18.39151 | 13007 ft | 393 kts | 161° |
| 2026-05-03 22:45 | 54.05799 | 18.40927 | 13679 ft | 396 kts | 161° |
| 2026-05-03 22:46 | 54.03238 | 18.42691 | 14350 ft | 399 kts | 162° |
| 2026-05-03 22:46 | 54.00652 | 18.44451 | 15027 ft | 402 kts | 162° |
| 2026-05-03 22:46 | 53.98046 | 18.46208 | 15704 ft | 405 kts | 162° |
| 2026-05-03 22:46 | 53.95415 | 18.47971 | 16357 ft | 408 kts | 162° |
| 2026-05-03 22:47 | 53.92766 | 18.49740 | 16977 ft | 411 kts | 162° |
| 2026-05-03 22:47 | 53.90128 | 18.51495 | 17558 ft | 414 kts | 162° |
| 2026-05-03 22:47 | 53.87434 | 18.53286 | 18148 ft | 417 kts | 162° |
| 2026-05-03 22:47 | 53.84719 | 18.55088 | 18699 ft | 421 kts | 162° |
| 2026-05-03 22:48 | 53.81979 | 18.56917 | 19233 ft | 425 kts | 162° |
| 2026-05-03 22:48 | 53.79214 | 18.58760 | 19752 ft | 429 kts | 161° |
| 2026-05-03 22:48 | 53.76426 | 18.60615 | 20263 ft | 432 kts | 161° |
| 2026-05-03 22:48 | 53.73617 | 18.62513 | 20739 ft | 437 kts | 160° |
| 2026-05-03 22:49 | 53.70814 | 18.64549 | 21221 ft | 440 kts | 159° |
| 2026-05-03 22:49 | 53.68035 | 18.66595 | 21672 ft | 444 kts | 159° |
| 2026-05-03 22:49 | 53.65188 | 18.68671 | 22120 ft | 447 kts | 159° |
| 2026-05-03 22:49 | 53.62322 | 18.70746 | 22552 ft | 450 kts | 159° |
| 2026-05-03 22:50 | 53.59433 | 18.72830 | 22963 ft | 453 kts | 159° |
| 2026-05-03 22:50 | 53.56518 | 18.74906 | 23361 ft | 456 kts | 161° |
| 2026-05-03 22:50 | 53.53478 | 18.76385 | 23754 ft | 455 kts | 171° |
| 2026-05-03 22:50 | 53.50331 | 18.76906 | 24125 ft | 455 kts | 182° |
| 2026-05-03 22:51 | 53.47171 | 18.76593 | 24501 ft | 456 kts | 188° |
| 2026-05-03 22:51 | 53.44058 | 18.75956 | 24868 ft | 458 kts | 190° |
| 2026-05-03 22:51 | 53.40903 | 18.75155 | 25218 ft | 460 kts | 191° |
| 2026-05-03 22:51 | 53.37730 | 18.74321 | 25564 ft | 463 kts | 191° |
| 2026-05-03 22:52 | 53.34540 | 18.73482 | 25895 ft | 466 kts | 191° |
| 2026-05-03 22:52 | 53.31327 | 18.72640 | 26218 ft | 468 kts | 191° |
| 2026-05-03 22:52 | 53.28103 | 18.71796 | 26530 ft | 470 kts | 191° |
| 2026-05-03 22:52 | 53.24859 | 18.70948 | 26834 ft | 473 kts | 191° |
| 2026-05-03 22:53 | 53.21606 | 18.70100 | 27191 ft | 474 kts | 191° |
| 2026-05-03 22:53 | 53.18351 | 18.69253 | 27633 ft | 472 kts | 191° |
| 2026-05-03 22:53 | 53.15155 | 18.68412 | 28053 ft | 471 kts | 191° |
| 2026-05-03 22:53 | 53.11915 | 18.67562 | 28439 ft | 471 kts | 191° |
| 2026-05-03 22:54 | 53.08677 | 18.66716 | 28835 ft | 471 kts | 191° |
| 2026-05-03 22:54 | 53.05440 | 18.65872 | 29228 ft | 470 kts | 191° |
| 2026-05-03 22:54 | 53.02208 | 18.65031 | 29607 ft | 470 kts | 191° |
| 2026-05-03 22:54 | 52.98977 | 18.64192 | 29989 ft | 470 kts | 191° |
| 2026-05-03 22:55 | 52.95748 | 18.63356 | 30355 ft | 469 kts | 191° |
| 2026-05-03 22:55 | 52.92524 | 18.62523 | 30730 ft | 469 kts | 191° |
| 2026-05-03 22:55 | 52.89301 | 18.61691 | 31088 ft | 468 kts | 191° |
| 2026-05-03 22:55 | 52.86084 | 18.60862 | 31446 ft | 468 kts | 191° |
| 2026-05-03 22:56 | 52.82912 | 18.60046 | 31791 ft | 467 kts | 191° |
| 2026-05-03 22:56 | 52.79689 | 18.59219 | 31916 ft | 470 kts | 191° |
| 2026-05-03 22:56 | 52.76454 | 18.58389 | 31923 ft | 471 kts | 191° |
| 2026-05-03 22:57 | 52.69993 | 18.56737 | 31929 ft | 468 kts | 191° |
| 2026-05-03 22:57 | 52.63566 | 18.55098 | 31933 ft | 468 kts | 191° |
| 2026-05-03 22:58 | 52.57129 | 18.53462 | 31938 ft | 468 kts | 191° |
| 2026-05-03 22:58 | 52.50733 | 18.51841 | 31943 ft | 468 kts | 190° |
| 2026-05-03 22:59 | 52.44289 | 18.50213 | 31948 ft | 468 kts | 190° |
| 2026-05-03 22:59 | 52.37851 | 18.48591 | 31960 ft | 468 kts | 190° |
| 2026-05-03 23:00 | 52.31413 | 18.46974 | 31969 ft | 468 kts | 190° |
| 2026-05-03 23:00 | 52.25014 | 18.45371 | 31969 ft | 468 kts | 190° |
| 2026-05-03 23:01 | 52.18569 | 18.43761 | 31974 ft | 469 kts | 190° |
| 2026-05-03 23:01 | 52.12122 | 18.42156 | 31979 ft | 469 kts | 190° |
| 2026-05-03 23:02 | 52.05676 | 18.40556 | 31986 ft | 469 kts | 190° |
| 2026-05-03 23:02 | 51.99274 | 18.38971 | 31991 ft | 469 kts | 190° |
| 2026-05-03 23:03 | 51.92814 | 18.37376 | 31994 ft | 470 kts | 190° |
| 2026-05-03 23:03 | 51.86357 | 18.35787 | 31996 ft | 469 kts | 190° |
| 2026-05-03 23:04 | 51.79898 | 18.34202 | 31998 ft | 469 kts | 190° |
| 2026-05-03 23:04 | 51.73480 | 18.32631 | 31999 ft | 470 kts | 190° |
| 2026-05-03 23:05 | 51.67018 | 18.31055 | 32007 ft | 470 kts | 190° |
| 2026-05-03 23:05 | 51.60544 | 18.29480 | 32013 ft | 471 kts | 190° |
| 2026-05-03 23:06 | 51.54070 | 18.27909 | 32014 ft | 471 kts | 190° |
| 2026-05-03 23:06 | 51.47636 | 18.26353 | 32016 ft | 471 kts | 190° |
| 2026-05-03 23:07 | 51.41155 | 18.24790 | 32017 ft | 471 kts | 190° |
| 2026-05-03 23:07 | 51.34667 | 18.23229 | 32018 ft | 471 kts | 190° |
| 2026-05-03 23:08 | 51.28177 | 18.21673 | 32018 ft | 472 kts | 190° |
| 2026-05-03 23:08 | 51.21689 | 18.20121 | 32020 ft | 471 kts | 189° |
| 2026-05-03 23:09 | 51.15244 | 18.18584 | 32021 ft | 472 kts | 190° |
| 2026-05-03 23:09 | 51.08737 | 18.17037 | 32026 ft | 473 kts | 189° |
| 2026-05-03 23:10 | 51.02229 | 18.15494 | 32037 ft | 473 kts | 189° |
| 2026-05-03 23:10 | 50.95720 | 18.13954 | 32042 ft | 473 kts | 189° |
| 2026-05-03 23:11 | 50.89242 | 18.12427 | 32044 ft | 474 kts | 189° |
| 2026-05-03 23:11 | 50.82723 | 18.10894 | 32043 ft | 474 kts | 189° |
| 2026-05-03 23:12 | 50.76209 | 18.09367 | 32043 ft | 473 kts | 189° |
| 2026-05-03 23:12 | 50.69691 | 18.07843 | 32046 ft | 473 kts | 189° |
| 2026-05-03 23:13 | 50.63218 | 18.06326 | 32039 ft | 474 kts | 189° |
| 2026-05-03 23:13 | 50.56698 | 18.04807 | 32041 ft | 474 kts | 189° |
| 2026-05-03 23:14 | 50.50176 | 18.03297 | 32045 ft | 474 kts | 189° |
| 2026-05-03 23:14 | 50.43636 | 18.01788 | 32051 ft | 475 kts | 189° |
| 2026-05-03 23:15 | 50.37142 | 18.00295 | 32056 ft | 475 kts | 189° |
| 2026-05-03 23:15 | 50.30543 | 17.99693 | 32059 ft | 476 kts | 181° |
| 2026-05-03 23:16 | 50.23924 | 17.99703 | 32062 ft | 476 kts | 180° |
| 2026-05-03 23:16 | 50.17301 | 17.99682 | 32066 ft | 476 kts | 181° |
| 2026-05-03 23:17 | 50.10723 | 17.99647 | 32069 ft | 476 kts | 181° |
| 2026-05-03 23:17 | 50.04108 | 17.99392 | 32072 ft | 475 kts | 186° |
| 2026-05-03 23:18 | 49.97607 | 17.97614 | 32076 ft | 474 kts | 194° |
| 2026-05-03 23:18 | 49.91207 | 17.95111 | 31974 ft | 473 kts | 195° |
| 2026-05-03 23:18 | 49.88031 | 17.93868 | 31326 ft | 470 kts | 195° |
| 2026-05-03 23:19 | 49.84899 | 17.92650 | 30535 ft | 471 kts | 195° |
| 2026-05-03 23:19 | 49.81722 | 17.91420 | 29725 ft | 471 kts | 195° |
| 2026-05-03 23:19 | 49.78539 | 17.90192 | 28914 ft | 471 kts | 195° |
| 2026-05-03 23:19 | 49.75354 | 17.88967 | 28085 ft | 471 kts | 195° |
| 2026-05-03 23:20 | 49.72170 | 17.87746 | 27235 ft | 472 kts | 195° |
| 2026-05-03 23:20 | 49.68987 | 17.86524 | 26359 ft | 472 kts | 195° |
| 2026-05-03 23:20 | 49.65805 | 17.85296 | 25502 ft | 471 kts | 195° |
| 2026-05-03 23:20 | 49.62642 | 17.84079 | 24825 ft | 466 kts | 195° |
| 2026-05-03 23:21 | 49.59513 | 17.82879 | 24153 ft | 461 kts | 195° |
| 2026-05-03 23:21 | 49.56460 | 17.81712 | 23491 ft | 456 kts | 195° |
| 2026-05-03 23:21 | 49.53393 | 17.80541 | 22822 ft | 452 kts | 195° |
| 2026-05-03 23:21 | 49.50355 | 17.79384 | 22156 ft | 448 kts | 195° |
| 2026-05-03 23:22 | 49.44358 | 17.77106 | 20830 ft | 441 kts | 195° |
| 2026-05-03 23:22 | 49.41390 | 17.75981 | 20170 ft | 437 kts | 194° |
| 2026-05-03 23:22 | 49.38448 | 17.74867 | 19513 ft | 434 kts | 194° |
| 2026-05-03 23:23 | 49.35527 | 17.73763 | 18858 ft | 431 kts | 194° |
| 2026-05-03 23:23 | 49.32665 | 17.72682 | 18215 ft | 428 kts | 194° |
| 2026-05-03 23:23 | 49.29783 | 17.71595 | 17567 ft | 425 kts | 194° |
| 2026-05-03 23:23 | 49.26918 | 17.70516 | 16921 ft | 422 kts | 194° |
| 2026-05-03 23:24 | 49.24074 | 17.69447 | 16276 ft | 419 kts | 194° |
| 2026-05-03 23:24 | 49.21253 | 17.68386 | 15635 ft | 417 kts | 194° |
| 2026-05-03 23:24 | 49.18443 | 17.67332 | 15017 ft | 414 kts | 194° |
| 2026-05-03 23:24 | 49.15664 | 17.66291 | 14468 ft | 409 kts | 194° |
| 2026-05-03 23:25 | 49.12907 | 17.65255 | 13836 ft | 406 kts | 194° |
| 2026-05-03 23:25 | 49.10212 | 17.64240 | 13214 ft | 404 kts | 194° |
| 2026-05-03 23:25 | 49.07504 | 17.63224 | 12762 ft | 398 kts | 193° |
| 2026-05-03 23:25 | 49.04851 | 17.62233 | 12504 ft | 387 kts | 193° |
| 2026-05-03 23:26 | 49.02276 | 17.61273 | 12285 ft | 376 kts | 193° |
| 2026-05-03 23:26 | 48.99768 | 17.60341 | 12075 ft | 366 kts | 193° |
| 2026-05-03 23:26 | 48.97329 | 17.59435 | 11875 ft | 357 kts | 193° |
| 2026-05-03 23:26 | 48.94943 | 17.58550 | 11681 ft | 349 kts | 193° |
| 2026-05-03 23:27 | 48.92612 | 17.57687 | 11493 ft | 341 kts | 193° |
| 2026-05-03 23:27 | 48.90363 | 17.56855 | 11312 ft | 334 kts | 193° |
| 2026-05-03 23:27 | 48.88170 | 17.56044 | 11136 ft | 328 kts | 193° |
| 2026-05-03 23:27 | 48.85935 | 17.55218 | 10957 ft | 321 kts | 193° |
| 2026-05-03 23:28 | 48.83780 | 17.54425 | 10785 ft | 315 kts | 192° |
| 2026-05-03 23:28 | 48.81638 | 17.53886 | 10616 ft | 310 kts | 185° |
| 2026-05-03 23:28 | 48.79503 | 17.53738 | 10451 ft | 305 kts | 180° |
| 2026-05-03 23:28 | 48.77403 | 17.53774 | 10289 ft | 300 kts | 178° |
| 2026-05-03 23:29 | 48.75332 | 17.53842 | 10131 ft | 295 kts | 179° |
| 2026-05-03 23:29 | 48.73314 | 17.53896 | 10093 ft | 285 kts | 179° |
| 2026-05-03 23:29 | 48.71342 | 17.53941 | 9762 ft | 285 kts | 179° |
| 2026-05-03 23:29 | 48.69370 | 17.53979 | 9339 ft | 289 kts | 179° |
| 2026-05-03 23:30 | 48.67359 | 17.54013 | 8966 ft | 290 kts | 179° |
| 2026-05-03 23:30 | 48.65345 | 17.54045 | 8647 ft | 289 kts | 179° |
| 2026-05-03 23:30 | 48.63338 | 17.54076 | 8342 ft | 287 kts | 179° |
| 2026-05-03 23:30 | 48.61351 | 17.54080 | 8137 ft | 282 kts | 181° |
| 2026-05-03 23:31 | 48.59427 | 17.53911 | 8073 ft | 272 kts | 184° |
| 2026-05-03 23:31 | 48.57576 | 17.53653 | 7960 ft | 264 kts | 185° |
| 2026-05-03 23:31 | 48.55758 | 17.53383 | 7718 ft | 261 kts | 185° |
| 2026-05-03 23:31 | 48.53977 | 17.53130 | 7442 ft | 260 kts | 185° |
| 2026-05-03 23:32 | 48.52187 | 17.52885 | 7183 ft | 256 kts | 184° |
| 2026-05-03 23:32 | 48.50420 | 17.52650 | 6785 ft | 254 kts | 184° |
| 2026-05-03 23:32 | 48.48662 | 17.52420 | 6382 ft | 253 kts | 184° |
| 2026-05-03 23:32 | 48.46917 | 17.52195 | 5994 ft | 250 kts | 184° |
| 2026-05-03 23:33 | 48.45195 | 17.51973 | 5655 ft | 246 kts | 184° |
| 2026-05-03 23:33 | 48.43506 | 17.51754 | 5445 ft | 242 kts | 184° |
| 2026-05-03 23:33 | 48.41844 | 17.51540 | 5235 ft | 237 kts | 184° |
| 2026-05-03 23:33 | 48.40237 | 17.51333 | 5033 ft | 233 kts | 184° |
| 2026-05-03 23:34 | 48.38653 | 17.51068 | 4977 ft | 227 kts | 192° |
| 2026-05-03 23:34 | 48.37242 | 17.50100 | 4990 ft | 219 kts | 211° |
| 2026-05-03 23:34 | 48.36063 | 17.48707 | 5007 ft | 213 kts | 218° |
| 2026-05-03 23:34 | 48.34983 | 17.47199 | 4930 ft | 211 kts | 220° |
| 2026-05-03 23:35 | 48.33930 | 17.45668 | 4688 ft | 210 kts | 220° |
| 2026-05-03 23:35 | 48.32890 | 17.44161 | 4440 ft | 205 kts | 220° |
| 2026-05-03 23:35 | 48.31876 | 17.42694 | 4159 ft | 200 kts | 220° |
| 2026-05-03 23:35 | 48.30900 | 17.41283 | 3895 ft | 196 kts | 220° |
| 2026-05-03 23:36 | 48.29927 | 17.39878 | 3636 ft | 192 kts | 220° |
| 2026-05-03 23:36 | 48.28979 | 17.38511 | 3382 ft | 186 kts | 220° |
| 2026-05-03 23:36 | 48.28064 | 17.37191 | 3138 ft | 180 kts | 219° |
| 2026-05-03 23:36 | 48.27172 | 17.35904 | 2903 ft | 176 kts | 219° |
| 2026-05-03 23:37 | 48.26293 | 17.34638 | 2672 ft | 174 kts | 220° |
| 2026-05-03 23:37 | 48.25443 | 17.33413 | 2451 ft | 164 kts | 220° |
| 2026-05-03 23:37 | 48.24642 | 17.32260 | 2224 ft | 156 kts | 220° |
| 2026-05-03 23:37 | 48.23869 | 17.31147 | 2022 ft | 152 kts | 220° |
| 2026-05-03 23:38 | 48.23123 | 17.30074 | 1850 ft | 149 kts | 221° |
| 2026-05-03 23:38 | 48.22369 | 17.28988 | 1646 ft | 151 kts | 222° |
| 2026-05-03 23:38 | 48.21604 | 17.27887 | 1441 ft | 154 kts | 223° |
| 2026-05-03 23:38 | 48.20828 | 17.26771 | 1232 ft | 155 kts | 223° |
| 2026-05-03 23:39 | 48.20052 | 17.25656 | 1024 ft | 154 kts | 223° |
| 2026-05-03 23:39 | 48.19279 | 17.24543 | 817 ft | 154 kts | 224° |
| 2026-05-03 23:39 | 48.18503 | 17.23429 | 603 ft | 154 kts | 223° |
| 2026-05-03 23:39 | 48.17735 | 17.22327 | 451 ft | 150 kts | 224° |
| 2026-05-03 23:40 | 48.17075 | 17.21376 | 444 ft | 108 kts | 223° |
| 2026-05-03 23:40 | 48.16657 | 17.20781 | 444 ft | 60 kts | 224° |
| 2026-05-03 23:40 | 48.16441 | 17.20470 | 444 ft | 36 kts | 223° |
| 2026-05-03 23:40 | 48.16298 | 17.20249 | 444 ft | 21 kts | 258° |
| 2026-05-03 23:41 | 48.16355 | 17.20122 | 444 ft | 12 kts | 314° |
| 2026-05-03 23:41 | 48.16402 | 17.20050 | 444 ft | 7 kts | 314° |
| 2026-05-03 23:41 | 48.16454 | 17.20057 | 444 ft | 13 kts | 40° |
| 2026-05-03 23:41 | 48.16536 | 17.20162 | 444 ft | 18 kts | 40° |
| 2026-05-03 23:42 | 48.16638 | 17.20293 | 444 ft | 21 kts | 40° |
| 2026-05-03 23:42 | 48.16730 | 17.20343 | 444 ft | 10 kts | 307° |
| 2026-05-03 23:42 | 48.16785 | 17.20254 | 444 ft | 13 kts | 313° |
| 2026-05-03 23:42 | 48.16840 | 17.20168 | 444 ft | 9 kts | 314° |
| 2026-05-03 23:43 | 48.16880 | 17.20169 | 444 ft | 9 kts | 45° |
| 2026-05-03 23:43 | 48.16918 | 17.20183 | 444 ft | 4 kts | 327° |
| 2026-05-03 23:43 | 48.16944 | 17.20148 | 444 ft | 2 kts | 314° |